Los Angeles Regional Airport Weather

KWHP 260150Z 12006KT 10SM SKC 21/14 A2993

KAPV 191256Z AUTO 05004KT 10SM FEW075 SCT090 BKN110 18/18 A2996 RMK AO2 SLP144 T01830178 $

KAVX 260951Z AUTO 22005KT M1/4SM FG VV001 14/14 A2996 RMK AO2 SLP134 T01440144 $

KBFL 260954Z AUTO 00000KT 10SM CLR 22/06 A2994 RMK AO2 SLP131 T02170061

KBUR 261004Z 00000KT 8SM OVC009 16/16 A2994 RMK AO2 T01610156

KCMA 260955Z AUTO 00000KT 7SM BKN010 17/14 A2994 RMK AO2 SLP146 T01720139

KCNO 260953Z AUTO 00000KT 5SM BR CLR 17/14 A2995 RMK AO2 SLP137 T01670144

KEMT 260257Z 22004KT 10SM CLR 20/15 A2991

KFUL 260953Z AUTO 00000KT 7SM CLR 17/14 A2993 RMK AO2 SLP133 T01720144

KHHR 260953Z AUTO 22004KT 8SM OVC009 18/16 A2994 RMK AO2 SLP139 T01780156

KL35 260955Z AUTO 00000KT 10SM CLR 06/00 A3028 RMK AO2

KLAX 260953Z 27004KT 9SM FEW008 OVC010 18/16 A2994 RMK AO2 SLP137 T01780156 $

KLGB 260953Z AUTO 32005KT 8SM OVC009 17/16 A2994 RMK AO2 SLP138 T01720156

KONT 260953Z 00000KT 7SM CLR 17/14 A2994 RMK AO2 SLP126 T01720144 $

KOXR 260951Z AUTO 36003KT 8SM BKN008 16/14 A2994 RMK AO2 SLP138 T01610144

KPMD 260953Z AUTO 18004KT 10SM CLR 18/06 A3002 RMK AO2 SLP136 T01830061

KPOC 260347Z 27007KT 10SM CLR 19/14 A2994

KRAL 260953Z AUTO 00000KT 9SM CLR 17/14 A2994 RMK AO2 SLP125 T01670144

KSMO 260951Z AUTO 24004KT 9SM OVC008 19/16 A2994 RMK AO2 SLP138 T01940156

KSNA 260953Z AUTO 00000KT 8SM OVC014 18/15 A2994 RMK AO2 SLP135 T01830150

KTOA 260249Z 26010KT 10SM SCT012 18/16 A2991 RMK LAST

KTRM 260952Z AUTO 01003KT 10SM CLR 21/12 A2982 RMK AO2 SLP100 T02110122

KVNY 260951Z AUTO 00000KT 8SM CLR 17/14 A2994 RMK AO2 SLP129 T01720144

KWJF 260956Z AUTO 00000KT 10SM CLR 16/03 A3001 RMK AO2 SLP145 T01560028



How to read METARs